Main page
METAR-TAF:

METAR-TAF

Airports :

Leuchars Station

Leuchars, Scotland

latitude: 56-23N, longitude: 002-52W, elevation: 12 m

Current weather observation

The report was made 21 minutes ago, at 21:50 UTC
Wind 5 kt from the West
Temperature -2°C
Humidity 93%
Pressure 996 hPa
Visibility 10 km or more
no clouds below 1500 m and no cumulonimbus

METAR: EGQL 222150Z 27005KT CAVOK M02/M03 Q0996 BLU

Time: 22:11 (22:11 UTC)

Forecast

The report was made 2 hours and 40 minutes ago, at 19:31 UTC
Forecast valid from 22 at 21 UTC to 23 at 06 UTC
Wind 8 kt from the West
Visibility 10 km or more
no clouds below 1500 m and no cumulonimbus

TAF: EGQL 221931Z 2221/2306 27008KT CAVOK

Weather observations and forecasts of more than 4000 airports (METAR and TAF reports).

The available stations are represented by yellow and red dots on the map.

Hover mouse over dot to see the name of the station.

Then click to see weather observations and forecasts.

To change the map : click on the green buttons with a black cross to zoom in, on the green button with a dash to zoom out, or on the green arrows for adjacent maps.


METAR-TAF: